sensor_id;sensor_type;location;lat;lon;timestamp;temperature;humidity
27258;DHT22;62045;49.986;8.672;2023-02-04T00:03:23;17.10;56.00
27258;DHT22;62045;49.986;8.672;2023-02-04T00:08:23;17.00;56.00
27258;DHT22;62045;49.986;8.672;2023-02-04T00:13:25;17.00;56.10
27258;DHT22;62045;49.986;8.672;2023-02-04T00:18:27;16.90;56.10
27258;DHT22;62045;49.986;8.672;2023-02-04T00:23:28;16.80;56.20
27258;DHT22;62045;49.986;8.672;2023-02-04T00:28:30;16.80;56.30
27258;DHT22;62045;49.986;8.672;2023-02-04T00:33:30;16.70;56.40
27258;DHT22;62045;49.986;8.672;2023-02-04T00:38:31;16.70;56.40
27258;DHT22;62045;49.986;8.672;2023-02-04T00:43:33;16.70;56.40
27258;DHT22;62045;49.986;8.672;2023-02-04T00:48:34;16.80;56.30
27258;DHT22;62045;49.986;8.672;2023-02-04T00:53:35;16.90;56.10
27258;DHT22;62045;49.986;8.672;2023-02-04T00:58:37;17.00;55.90
27258;DHT22;62045;49.986;8.672;2023-02-04T01:03:38;17.00;55.90
27258;DHT22;62045;49.986;8.672;2023-02-04T01:08:39;17.00;55.90
27258;DHT22;62045;49.986;8.672;2023-02-04T01:13:41;16.90;55.80
27258;DHT22;62045;49.986;8.672;2023-02-04T01:18:41;16.90;55.90
27258;DHT22;62045;49.986;8.672;2023-02-04T01:23:42;16.80;56.00
27258;DHT22;62045;49.986;8.672;2023-02-04T01:28:44;16.80;56.00
27258;DHT22;62045;49.986;8.672;2023-02-04T01:33:45;16.70;56.00
27258;DHT22;62045;49.986;8.672;2023-02-04T01:38:46;16.70;56.10
27258;DHT22;62045;49.986;8.672;2023-02-04T01:43:48;16.70;56.20
27258;DHT22;62045;49.986;8.672;2023-02-04T01:48:49;16.70;56.20
27258;DHT22;62045;49.986;8.672;2023-02-04T01:53:49;16.80;56.10
27258;DHT22;62045;49.986;8.672;2023-02-04T01:58:52;16.80;55.80
27258;DHT22;62045;49.986;8.672;2023-02-04T02:03:53;16.90;55.70
27258;DHT22;62045;49.986;8.672;2023-02-04T02:08:54;16.90;55.60
27258;DHT22;62045;49.986;8.672;2023-02-04T02:13:57;16.90;55.50
27258;DHT22;62045;49.986;8.672;2023-02-04T02:18:58;16.90;55.60
27258;DHT22;62045;49.986;8.672;2023-02-04T02:24:24;16.90;55.60
27258;DHT22;62045;49.986;8.672;2023-02-04T02:29:27;16.80;55.70
27258;DHT22;62045;49.986;8.672;2023-02-04T02:34:28;16.70;55.70
27258;DHT22;62045;49.986;8.672;2023-02-04T02:39:31;16.70;55.80
27258;DHT22;62045;49.986;8.672;2023-02-04T02:44:33;16.70;55.80
27258;DHT22;62045;49.986;8.672;2023-02-04T02:49:34;16.70;55.90
27258;DHT22;62045;49.986;8.672;2023-02-04T02:54:36;16.70;55.80
27258;DHT22;62045;49.986;8.672;2023-02-04T02:59:39;16.80;55.70
27258;DHT22;62045;49.986;8.672;2023-02-04T03:04:43;16.90;55.60
27258;DHT22;62045;49.986;8.672;2023-02-04T03:09:47;16.90;55.40
27258;DHT22;62045;49.986;8.672;2023-02-04T03:14:48;17.00;55.30
27258;DHT22;62045;49.986;8.672;2023-02-04T03:19:49;17.00;55.30
27258;DHT22;62045;49.986;8.672;2023-02-04T03:24:51;17.00;55.30
27258;DHT22;62045;49.986;8.672;2023-02-04T03:29:53;16.90;55.30
27258;DHT22;62045;49.986;8.672;2023-02-04T03:34:53;16.90;55.50
27258;DHT22;62045;49.986;8.672;2023-02-04T03:39:55;16.80;55.50
27258;DHT22;62045;49.986;8.672;2023-02-04T03:44:56;16.80;55.60
27258;DHT22;62045;49.986;8.672;2023-02-04T03:49:57;16.70;55.60
27258;DHT22;62045;49.986;8.672;2023-02-04T03:54:59;16.70;55.70
27258;DHT22;62045;49.986;8.672;2023-02-04T03:59:59;16.70;55.70
27258;DHT22;62045;49.986;8.672;2023-02-04T04:05:00;16.80;55.60
27258;DHT22;62045;49.986;8.672;2023-02-04T04:10:02;16.80;55.40
27258;DHT22;62045;49.986;8.672;2023-02-04T04:15:04;16.90;55.30
27258;DHT22;62045;49.986;8.672;2023-02-04T04:20:05;16.90;55.20
27258;DHT22;62045;49.986;8.672;2023-02-04T04:25:08;16.90;55.10
27258;DHT22;62045;49.986;8.672;2023-02-04T04:30:10;16.90;55.10
27258;DHT22;62045;49.986;8.672;2023-02-04T04:35:11;16.90;55.20
27258;DHT22;62045;49.986;8.672;2023-02-04T04:40:13;16.80;55.20
27258;DHT22;62045;49.986;8.672;2023-02-04T04:45:14;16.80;55.30
27258;DHT22;62045;49.986;8.672;2023-02-04T04:50:15;16.70;55.40
27258;DHT22;62045;49.986;8.672;2023-02-04T04:55:17;16.70;55.50
27258;DHT22;62045;49.986;8.672;2023-02-04T05:00:19;16.60;55.50
27258;DHT22;62045;49.986;8.672;2023-02-04T05:05:20;16.60;55.60
27258;DHT22;62045;49.986;8.672;2023-02-04T05:10:22;16.60;55.50
27258;DHT22;62045;49.986;8.672;2023-02-04T05:15:23;16.70;55.40
27258;DHT22;62045;49.986;8.672;2023-02-04T05:20:24;16.80;55.20
27258;DHT22;62045;49.986;8.672;2023-02-04T05:25:26;16.90;54.90
27258;DHT22;62045;49.986;8.672;2023-02-04T05:30:27;17.00;54.80
27258;DHT22;62045;49.986;8.672;2023-02-04T05:35:28;17.00;54.70
27258;DHT22;62045;49.986;8.672;2023-02-04T05:40:30;17.00;54.70
27258;DHT22;62045;49.986;8.672;2023-02-04T05:45:30;17.00;54.70
27258;DHT22;62045;49.986;8.672;2023-02-04T05:50:31;17.00;54.80
27258;DHT22;62045;49.986;8.672;2023-02-04T05:55:43;16.90;54.80
27258;DHT22;62045;49.986;8.672;2023-02-04T06:00:44;16.90;54.90
27258;DHT22;62045;49.986;8.672;2023-02-04T06:05:45;16.80;55.00
27258;DHT22;62045;49.986;8.672;2023-02-04T06:10:47;16.80;55.10
27258;DHT22;62045;49.986;8.672;2023-02-04T06:15:48;16.80;55.20
27258;DHT22;62045;49.986;8.672;2023-02-04T06:20:48;16.80;55.10
27258;DHT22;62045;49.986;8.672;2023-02-04T06:25:50;16.90;55.00
27258;DHT22;62045;49.986;8.672;2023-02-04T06:30:51;17.00;54.80
27258;DHT22;62045;49.986;8.672;2023-02-04T06:35:52;17.10;54.70
27258;DHT22;62045;49.986;8.672;2023-02-04T06:40:54;17.10;54.70
27258;DHT22;62045;49.986;8.672;2023-02-04T06:45:54;17.00;54.60
27258;DHT22;62045;49.986;8.672;2023-02-04T06:50:55;17.00;54.70
27258;DHT22;62045;49.986;8.672;2023-02-04T06:55:57;16.90;54.80
27258;DHT22;62045;49.986;8.672;2023-02-04T07:00:58;16.90;55.00
27258;DHT22;62045;49.986;8.672;2023-02-04T07:05:59;16.80;55.00
27258;DHT22;62045;49.986;8.672;2023-02-04T07:11:01;16.70;55.00
27258;DHT22;62045;49.986;8.672;2023-02-04T07:16:01;16.70;55.20
27258;DHT22;62045;49.986;8.672;2023-02-04T07:21:02;16.70;55.20
27258;DHT22;62045;49.986;8.672;2023-02-04T07:26:04;16.70;55.10
27258;DHT22;62045;49.986;8.672;2023-02-04T07:31:05;16.80;54.90
27258;DHT22;62045;49.986;8.672;2023-02-04T07:36:06;16.90;54.70
27258;DHT22;62045;49.986;8.672;2023-02-04T07:41:09;17.00;54.60
27258;DHT22;62045;49.986;8.672;2023-02-04T07:46:09;17.00;54.60
27258;DHT22;62045;49.986;8.672;2023-02-04T07:51:10;17.00;54.60
27258;DHT22;62045;49.986;8.672;2023-02-04T07:56:12;16.90;54.60
27258;DHT22;62045;49.986;8.672;2023-02-04T08:01:13;16.80;54.70
27258;DHT22;62045;49.986;8.672;2023-02-04T08:06:14;16.80;54.80
27258;DHT22;62045;49.986;8.672;2023-02-04T08:11:16;16.70;54.90
27258;DHT22;62045;49.986;8.672;2023-02-04T08:16:16;16.70;55.00
27258;DHT22;62045;49.986;8.672;2023-02-04T08:21:17;16.60;55.00
27258;DHT22;62045;49.986;8.672;2023-02-04T08:26:19;16.60;55.10
27258;DHT22;62045;49.986;8.672;2023-02-04T08:31:20;16.60;55.00
27258;DHT22;62045;49.986;8.672;2023-02-04T08:36:20;16.70;54.90
27258;DHT22;62045;49.986;8.672;2023-02-04T08:41:23;16.80;54.70
27258;DHT22;62045;49.986;8.672;2023-02-04T08:46:23;16.90;54.60
27258;DHT22;62045;49.986;8.672;2023-02-04T08:51:24;16.90;54.60
27258;DHT22;62045;49.986;8.672;2023-02-04T08:56:26;16.90;54.70
27258;DHT22;62045;49.986;8.672;2023-02-04T09:01:27;16.90;54.70
27258;DHT22;62045;49.986;8.672;2023-02-04T09:06:27;16.80;55.30
27258;DHT22;62045;49.986;8.672;2023-02-04T09:11:29;16.80;54.80
27258;DHT22;62045;49.986;8.672;2023-02-04T09:16:30;16.80;54.90
27258;DHT22;62045;49.986;8.672;2023-02-04T09:21:31;16.80;55.00
27258;DHT22;62045;49.986;8.672;2023-02-04T09:26:33;16.80;55.00
27258;DHT22;62045;49.986;8.672;2023-02-04T09:31:34;16.80;54.90
27258;DHT22;62045;49.986;8.672;2023-02-04T09:36:34;16.80;55.00
27258;DHT22;62045;49.986;8.672;2023-02-04T09:41:37;16.80;54.80
27258;DHT22;62045;49.986;8.672;2023-02-04T09:46:39;17.00;54.70
27258;DHT22;62045;49.986;8.672;2023-02-04T09:51:41;17.10;54.30
27258;DHT22;62045;49.986;8.672;2023-02-04T09:56:44;17.30;54.10
27258;DHT22;62045;49.986;8.672;2023-02-04T10:01:47;17.30;53.90
27258;DHT22;62045;49.986;8.672;2023-02-04T10:06:51;17.30;54.00
27258;DHT22;62045;49.986;8.672;2023-02-04T10:11:53;17.30;54.00
27258;DHT22;62045;49.986;8.672;2023-02-04T10:17:00;17.20;54.10
27258;DHT22;62045;49.986;8.672;2023-02-04T10:22:02;17.20;54.20
27258;DHT22;62045;49.986;8.672;2023-02-04T10:27:08;17.20;54.30
27258;DHT22;62045;49.986;8.672;2023-02-04T10:32:25;17.10;54.20
27258;DHT22;62045;49.986;8.672;2023-02-04T10:37:26;17.10;54.30
27258;DHT22;62045;49.986;8.672;2023-02-04T10:42:29;17.00;54.40
27258;DHT22;62045;49.986;8.672;2023-02-04T10:47:30;16.90;54.60
27258;DHT22;62045;49.986;8.672;2023-02-04T10:52:34;16.90;54.70
27258;DHT22;62045;49.986;8.672;2023-02-04T10:57:38;16.80;54.80
27258;DHT22;62045;49.986;8.672;2023-02-04T11:02:44;16.70;54.90
27258;DHT22;62045;49.986;8.672;2023-02-04T11:07:46;16.80;55.00
27258;DHT22;62045;49.986;8.672;2023-02-04T11:13:00;16.80;54.80
27258;DHT22;62045;49.986;8.672;2023-02-04T11:18:02;17.00;54.60
27258;DHT22;62045;49.986;8.672;2023-02-04T11:23:30;17.00;54.50
27258;DHT22;62045;49.986;8.672;2023-02-04T11:28:44;17.00;54.40
27258;DHT22;62045;49.986;8.672;2023-02-04T11:33:45;17.00;54.40
27258;DHT22;62045;49.986;8.672;2023-02-04T11:38:48;17.00;54.40
27258;DHT22;62045;49.986;8.672;2023-02-04T11:43:51;16.90;54.50
27258;DHT22;62045;49.986;8.672;2023-02-04T11:48:53;16.80;54.60
27258;DHT22;62045;49.986;8.672;2023-02-04T11:53:54;16.80;54.60
27258;DHT22;62045;49.986;8.672;2023-02-04T11:58:57;16.70;54.70
27258;DHT22;62045;49.986;8.672;2023-02-04T12:03:59;16.70;54.80
27258;DHT22;62045;49.986;8.672;2023-02-04T12:09:04;16.70;54.90
27258;DHT22;62045;49.986;8.672;2023-02-04T12:14:08;16.70;54.80
27258;DHT22;62045;49.986;8.672;2023-02-04T12:19:09;16.80;54.70
27258;DHT22;62045;49.986;8.672;2023-02-04T12:24:10;17.00;54.50
27258;DHT22;62045;49.986;8.672;2023-02-04T12:29:12;17.10;54.40
27258;DHT22;62045;49.986;8.672;2023-02-04T12:34:13;17.10;54.50
27258;DHT22;62045;49.986;8.672;2023-02-04T12:39:14;17.10;55.20
27258;DHT22;62045;49.986;8.672;2023-02-04T12:44:16;17.10;55.70
27258;DHT22;62045;49.986;8.672;2023-02-04T12:49:16;17.10;56.90
27258;DHT22;62045;49.986;8.672;2023-02-04T12:54:17;17.10;56.90
27258;DHT22;62045;49.986;8.672;2023-02-04T12:59:19;17.10;56.70
27258;DHT22;62045;49.986;8.672;2023-02-04T13:04:20;17.00;56.10
27258;DHT22;62045;49.986;8.672;2023-02-04T13:09:21;17.00;55.60
27258;DHT22;62045;49.986;8.672;2023-02-04T13:14:23;16.90;54.70
27258;DHT22;62045;49.986;8.672;2023-02-04T13:19:23;16.80;54.50
27258;DHT22;62045;49.986;8.672;2023-02-04T13:24:25;16.80;53.90
27258;DHT22;62045;49.986;8.672;2023-02-04T13:29:27;16.80;53.20
27258;DHT22;62045;49.986;8.672;2023-02-04T13:34:28;17.00;53.80
27258;DHT22;62045;49.986;8.672;2023-02-04T13:39:29;17.00;53.90
27258;DHT22;62045;49.986;8.672;2023-02-04T13:44:31;17.10;54.40
27258;DHT22;62045;49.986;8.672;2023-02-04T13:49:31;17.10;55.20
27258;DHT22;62045;49.986;8.672;2023-02-04T13:54:32;17.10;55.70
27258;DHT22;62045;49.986;8.672;2023-02-04T13:59:34;17.00;56.60
27258;DHT22;62045;49.986;8.672;2023-02-04T14:04:35;17.00;56.70
27258;DHT22;62045;49.986;8.672;2023-02-04T14:09:36;16.90;56.70
27258;DHT22;62045;49.986;8.672;2023-02-04T14:14:38;16.90;56.70
27258;DHT22;62045;49.986;8.672;2023-02-04T14:19:38;16.80;57.60
27258;DHT22;62045;49.986;8.672;2023-02-04T14:24:39;16.80;57.40
27258;DHT22;62045;49.986;8.672;2023-02-04T14:29:41;16.70;57.30
27258;DHT22;62045;49.986;8.672;2023-02-04T14:34:42;16.70;57.40
27258;DHT22;62045;49.986;8.672;2023-02-04T14:39:42;16.80;57.20
27258;DHT22;62045;49.986;8.672;2023-02-04T14:44:44;16.90;56.80
27258;DHT22;62045;49.986;8.672;2023-02-04T14:49:45;17.00;56.60
27258;DHT22;62045;49.986;8.672;2023-02-04T14:54:46;17.00;56.40
27258;DHT22;62045;49.986;8.672;2023-02-04T14:59:48;17.00;56.20
27258;DHT22;62045;49.986;8.672;2023-02-04T15:04:48;17.00;56.10
27258;DHT22;62045;49.986;8.672;2023-02-04T15:09:49;17.00;56.20
27258;DHT22;62045;49.986;8.672;2023-02-04T15:14:51;17.00;56.90
27258;DHT22;62045;49.986;8.672;2023-02-04T15:19:52;17.00;57.30
27258;DHT22;62045;49.986;8.672;2023-02-04T15:24:53;17.00;57.50
27258;DHT22;62045;49.986;8.672;2023-02-04T15:29:55;17.00;57.80
27258;DHT22;62045;49.986;8.672;2023-02-04T15:34:55;17.10;57.80
27258;DHT22;62045;49.986;8.672;2023-02-04T15:39:57;17.10;57.90
27258;DHT22;62045;49.986;8.672;2023-02-04T15:44:59;17.00;57.90
27258;DHT22;62045;49.986;8.672;2023-02-04T15:50:00;17.00;57.90
27258;DHT22;62045;49.986;8.672;2023-02-04T15:55:00;17.00;57.80
27258;DHT22;62045;49.986;8.672;2023-02-04T16:00:03;17.10;58.00
27258;DHT22;62045;49.986;8.672;2023-02-04T16:05:06;17.10;57.80
27258;DHT22;62045;49.986;8.672;2023-02-04T16:10:06;17.10;57.70
27258;DHT22;62045;49.986;8.672;2023-02-04T16:15:09;17.10;57.60
27258;DHT22;62045;49.986;8.672;2023-02-04T16:20:10;17.00;57.50
27258;DHT22;62045;49.986;8.672;2023-02-04T16:25:11;17.00;57.50
27258;DHT22;62045;49.986;8.672;2023-02-04T16:30:14;16.90;57.40
27258;DHT22;62045;49.986;8.672;2023-02-04T16:35:15;16.90;57.50
27258;DHT22;62045;49.986;8.672;2023-02-04T16:40:16;16.80;57.40
27258;DHT22;62045;49.986;8.672;2023-02-04T16:45:18;16.70;57.40
27258;DHT22;62045;49.986;8.672;2023-02-04T16:50:19;16.70;57.50
27258;DHT22;62045;49.986;8.672;2023-02-04T16:55:19;16.70;57.60
27258;DHT22;62045;49.986;8.672;2023-02-04T17:00:22;16.70;57.40
27258;DHT22;62045;49.986;8.672;2023-02-04T17:05:22;16.80;57.20
27258;DHT22;62045;49.986;8.672;2023-02-04T17:10:23;16.90;56.90
27258;DHT22;62045;49.986;8.672;2023-02-04T17:15:25;17.00;56.70
27258;DHT22;62045;49.986;8.672;2023-02-04T17:20:26;17.00;56.60
27258;DHT22;62045;49.986;8.672;2023-02-04T17:25:27;17.00;56.60
27258;DHT22;62045;49.986;8.672;2023-02-04T17:30:29;16.90;56.50
27258;DHT22;62045;49.986;8.672;2023-02-04T17:35:29;16.90;56.50
27258;DHT22;62045;49.986;8.672;2023-02-04T17:40:30;16.80;56.60
27258;DHT22;62045;49.986;8.672;2023-02-04T17:45:32;16.80;56.70
27258;DHT22;62045;49.986;8.672;2023-02-04T17:50:33;16.70;56.70
27258;DHT22;62045;49.986;8.672;2023-02-04T17:55:34;16.70;56.70
27258;DHT22;62045;49.986;8.672;2023-02-04T18:00:37;16.70;56.70
27258;DHT22;62045;49.986;8.672;2023-02-04T18:05:41;16.70;56.70
27258;DHT22;62045;49.986;8.672;2023-02-04T18:10:44;16.80;56.60
27258;DHT22;62045;49.986;8.672;2023-02-04T18:15:48;16.90;56.50
27258;DHT22;62045;49.986;8.672;2023-02-04T18:20:56;17.00;56.30
27258;DHT22;62045;49.986;8.672;2023-02-04T18:26:00;17.10;56.10
27258;DHT22;62045;49.986;8.672;2023-02-04T18:31:20;17.10;56.10
27258;DHT22;62045;49.986;8.672;2023-02-04T18:36:22;17.00;56.10
27258;DHT22;62045;49.986;8.672;2023-02-04T18:41:28;17.00;56.20
27258;DHT22;62045;49.986;8.672;2023-02-04T18:46:34;16.90;56.90
27258;DHT22;62045;49.986;8.672;2023-02-04T18:51:38;16.80;56.30
27258;DHT22;62045;49.986;8.672;2023-02-04T18:56:39;16.80;56.40
27258;DHT22;62045;49.986;8.672;2023-02-04T19:01:42;16.70;56.40
27258;DHT22;62045;49.986;8.672;2023-02-04T19:06:44;16.60;56.50
27258;DHT22;62045;49.986;8.672;2023-02-04T19:11:46;16.60;56.60
27258;DHT22;62045;49.986;8.672;2023-02-04T19:16:49;16.70;56.50
27258;DHT22;62045;49.986;8.672;2023-02-04T19:21:50;16.80;56.30
27258;DHT22;62045;49.986;8.672;2023-02-04T19:26:53;17.00;56.00
27258;DHT22;62045;49.986;8.672;2023-02-04T19:31:58;17.00;56.40
27258;DHT22;62045;49.986;8.672;2023-02-04T19:36:59;17.00;55.80
27258;DHT22;62045;49.986;8.672;2023-02-04T19:42:00;16.90;55.70
27258;DHT22;62045;49.986;8.672;2023-02-04T19:47:19;16.90;55.70
27258;DHT22;62045;49.986;8.672;2023-02-04T19:52:34;16.90;55.80
27258;DHT22;62045;49.986;8.672;2023-02-04T19:57:35;16.80;55.90
27258;DHT22;62045;49.986;8.672;2023-02-04T20:02:38;16.70;56.00
27258;DHT22;62045;49.986;8.672;2023-02-04T20:07:39;16.70;56.10
27258;DHT22;62045;49.986;8.672;2023-02-04T20:12:39;16.60;56.10
27258;DHT22;62045;49.986;8.672;2023-02-04T20:17:44;16.60;56.20
27258;DHT22;62045;49.986;8.672;2023-02-04T20:22:46;16.70;56.20
27258;DHT22;62045;49.986;8.672;2023-02-04T20:27:51;16.80;56.00
27258;DHT22;62045;49.986;8.672;2023-02-04T20:32:55;16.90;55.70
27258;DHT22;62045;49.986;8.672;2023-02-04T20:37:58;17.00;55.50
27258;DHT22;62045;49.986;8.672;2023-02-04T20:43:00;17.00;55.40
27258;DHT22;62045;49.986;8.672;2023-02-04T20:48:20;17.00;55.40
27258;DHT22;62045;49.986;8.672;2023-02-04T20:53:23;17.00;55.50
27258;DHT22;62045;49.986;8.672;2023-02-04T20:58:26;16.90;55.50
27258;DHT22;62045;49.986;8.672;2023-02-04T21:03:33;16.80;55.60
27258;DHT22;62045;49.986;8.672;2023-02-04T21:08:39;16.80;55.70
27258;DHT22;62045;49.986;8.672;2023-02-04T21:13:40;16.80;55.80
27258;DHT22;62045;49.986;8.672;2023-02-04T21:18:43;16.70;55.80
27258;DHT22;62045;49.986;8.672;2023-02-04T21:23:43;16.70;55.80
27258;DHT22;62045;49.986;8.672;2023-02-04T21:28:44;16.70;55.90
27258;DHT22;62045;49.986;8.672;2023-02-04T21:33:46;16.60;55.90
27258;DHT22;62045;49.986;8.672;2023-02-04T21:38:47;16.60;55.90
27258;DHT22;62045;49.986;8.672;2023-02-04T21:43:48;16.50;56.00
27258;DHT22;62045;49.986;8.672;2023-02-04T21:48:50;16.50;56.00
27258;DHT22;62045;49.986;8.672;2023-02-04T21:53:51;16.50;56.10
27258;DHT22;62045;49.986;8.672;2023-02-04T21:58:52;16.40;56.10
27258;DHT22;62045;49.986;8.672;2023-02-04T22:03:54;16.40;56.20
27258;DHT22;62045;49.986;8.672;2023-02-04T22:08:55;16.30;56.20
27258;DHT22;62045;49.986;8.672;2023-02-04T22:13:55;16.30;56.30
27258;DHT22;62045;49.986;8.672;2023-02-04T22:18:57;16.30;56.30
27258;DHT22;62045;49.986;8.672;2023-02-04T22:23:58;16.30;56.20
27258;DHT22;62045;49.986;8.672;2023-02-04T22:28:59;16.30;56.30
27258;DHT22;62045;49.986;8.672;2023-02-04T22:34:01;16.30;56.20
27258;DHT22;62045;49.986;8.672;2023-02-04T22:39:01;16.20;56.20
27258;DHT22;62045;49.986;8.672;2023-02-04T22:44:02;16.30;56.20
27258;DHT22;62045;49.986;8.672;2023-02-04T22:49:04;16.20;56.30
27258;DHT22;62045;49.986;8.672;2023-02-04T22:54:05;16.30;56.30
27258;DHT22;62045;49.986;8.672;2023-02-04T22:59:06;16.30;56.20
27258;DHT22;62045;49.986;8.672;2023-02-04T23:04:08;16.40;56.00
27258;DHT22;62045;49.986;8.672;2023-02-04T23:09:09;16.50;55.80
27258;DHT22;62045;49.986;8.672;2023-02-04T23:14:09;16.70;55.50
27258;DHT22;62045;49.986;8.672;2023-02-04T23:19:11;16.80;55.30
27258;DHT22;62045;49.986;8.672;2023-02-04T23:24:12;16.80;55.10
27258;DHT22;62045;49.986;8.672;2023-02-04T23:29:13;16.80;55.10
27258;DHT22;62045;49.986;8.672;2023-02-04T23:34:15;16.80;55.10
27258;DHT22;62045;49.986;8.672;2023-02-04T23:39:16;16.80;55.10
27258;DHT22;62045;49.986;8.672;2023-02-04T23:44:17;16.70;55.20
27258;DHT22;62045;49.986;8.672;2023-02-04T23:49:19;16.60;55.20
27258;DHT22;62045;49.986;8.672;2023-02-04T23:54:19;16.60;55.40
27258;DHT22;62045;49.986;8.672;2023-02-04T23:59:20;16.50;55.50
